createdAt,value
2018-04-23T00:03:04.375Z,40.90
2018-04-23T00:05:35.969Z,41.60
2018-04-23T00:08:10.323Z,42.00
2018-04-23T00:10:40.276Z,41.40
2018-04-23T00:13:10.387Z,41.30
2018-04-23T00:15:42.521Z,43.00
2018-04-23T00:18:12.515Z,42.00
2018-04-23T00:20:42.361Z,41.90
2018-04-23T00:23:12.207Z,42.00
2018-04-23T00:25:42.145Z,41.40
2018-04-23T00:28:12.044Z,41.40
2018-04-23T00:30:41.861Z,41.90
2018-04-23T00:33:11.767Z,41.90
2018-04-23T00:35:41.614Z,42.10
2018-04-23T00:38:11.460Z,42.10
2018-04-23T00:40:41.432Z,42.50
2018-04-23T00:43:11.233Z,41.90
2018-04-23T00:45:41.073Z,41.70
2018-04-23T00:48:10.946Z,42.50
2018-04-23T00:50:40.771Z,43.30
2018-04-23T00:53:21.670Z,43.80
2018-04-23T00:55:51.455Z,44.50
2018-04-23T00:58:21.247Z,44.60
2018-04-23T01:00:52.952Z,44.40
2018-04-23T01:03:23.581Z,43.40
2018-04-23T01:05:56.158Z,43.40
2018-04-23T01:08:28.501Z,43.20
2018-04-23T01:10:59.873Z,42.90
2018-04-23T01:13:29.687Z,41.90
2018-04-23T01:16:02.370Z,43.70
2018-04-23T01:18:32.397Z,43.00
2018-04-23T01:21:02.370Z,42.30
2018-04-23T01:23:32.206Z,41.60
2018-04-23T01:26:02.037Z,41.80
2018-04-23T01:28:31.946Z,41.40
2018-04-23T01:31:02.059Z,41.90
2018-04-23T01:33:32.148Z,42.20
2018-04-23T01:36:04.998Z,40.90
2018-04-23T01:38:35.000Z,41.90
2018-04-23T01:41:07.259Z,40.70
2018-04-23T01:43:37.061Z,40.40
2018-04-23T01:46:07.629Z,40.50
2018-04-23T01:48:37.507Z,40.00
2018-04-23T01:51:09.956Z,41.20
2018-04-23T01:53:39.932Z,41.00
2018-04-23T01:56:09.677Z,41.00
2018-04-23T01:58:39.566Z,42.20
2018-04-23T02:01:10.419Z,41.80
2018-04-23T02:03:41.403Z,42.10
2018-04-23T02:06:16.078Z,41.20
2018-04-23T02:08:49.433Z,41.60
2018-04-23T02:11:20.452Z,41.40
2018-04-23T02:13:50.355Z,42.20
2018-04-23T02:16:21.286Z,40.20
2018-04-23T02:18:54.667Z,38.90
2018-04-23T02:21:25.965Z,38.70
2018-04-23T02:23:56.453Z,38.20
2018-04-23T02:26:26.519Z,37.10
2018-04-23T02:28:56.466Z,37.60
2018-04-23T02:31:26.261Z,38.50
2018-04-23T02:33:56.103Z,39.70
2018-04-23T02:36:25.960Z,39.60
2018-04-23T02:38:56.392Z,36.90
2018-04-23T02:41:26.225Z,37.10
2018-04-23T02:43:55.972Z,37.90
2018-04-23T02:46:25.873Z,37.50
2018-04-23T02:48:55.800Z,38.70
2018-04-23T02:51:25.569Z,38.30
2018-04-23T02:53:55.386Z,38.80
2018-04-23T02:56:25.975Z,39.70
2018-04-23T02:58:55.799Z,39.70
2018-04-23T03:01:25.650Z,40.60
2018-04-23T03:03:55.471Z,40.40
2018-04-23T03:06:25.448Z,40.90
2018-04-23T03:08:55.237Z,41.60
2018-04-23T03:11:26.368Z,42.60
2018-04-23T03:13:58.239Z,43.10
2018-04-23T03:16:28.243Z,43.30
2018-04-23T03:18:59.695Z,43.80
2018-04-23T03:21:31.099Z,43.70
2018-04-23T03:24:00.924Z,44.20
2018-04-23T03:26:30.821Z,45.50
2018-04-23T03:29:00.716Z,45.60
2018-04-23T03:31:36.046Z,46.70
2018-04-23T03:34:05.763Z,46.80
2018-04-23T03:36:35.920Z,47.30
2018-04-23T03:39:06.077Z,48.20
2018-04-23T03:41:35.875Z,48.00
2018-04-23T03:44:05.660Z,49.10
2018-04-23T03:46:37.416Z,50.30
2018-04-23T03:49:09.753Z,51.00
2018-04-23T03:51:41.125Z,52.00
2018-04-23T03:54:13.365Z,53.50
2018-04-23T03:56:46.091Z,53.00
2018-04-23T03:59:16.171Z,51.40
2018-04-23T04:01:48.590Z,52.50
2018-04-23T04:04:19.727Z,53.40
2018-04-23T04:06:51.053Z,54.10
2018-04-23T04:09:22.826Z,53.20
2018-04-23T04:11:55.379Z,52.60
2018-04-23T04:14:37.815Z,53.00
2018-04-23T04:17:07.878Z,53.60
2018-04-23T04:19:40.316Z,53.90
2018-04-23T04:22:11.690Z,57.10
2018-04-23T04:24:43.009Z,57.10
2018-04-23T04:27:14.529Z,57.60
2018-04-23T04:29:46.505Z,57.70
2018-04-23T04:32:19.644Z,58.00
2018-04-23T04:34:51.068Z,57.80
2018-04-23T04:37:23.823Z,57.70
2018-04-23T04:39:53.612Z,57.60
2018-04-23T04:42:23.545Z,57.50
2018-04-23T04:44:53.344Z,58.10
2018-04-23T04:47:25.969Z,58.10
2018-04-23T04:49:58.338Z,58.00
2018-04-23T04:52:31.749Z,58.10
2018-04-23T04:55:04.312Z,58.80
2018-04-23T04:57:36.683Z,58.90
2018-04-23T05:00:09.064Z,59.00
2018-04-23T05:02:41.440Z,59.00
2018-04-23T05:05:11.441Z,59.60
2018-04-23T05:07:41.657Z,60.00
2018-04-23T05:10:13.839Z,60.10
2018-04-23T05:12:46.221Z,60.20
2018-04-23T05:15:17.975Z,60.90
2018-04-23T05:17:47.817Z,61.80
2018-04-23T05:20:20.677Z,61.60
2018-04-23T05:22:55.844Z,61.70
2018-04-23T05:25:28.483Z,62.70
2018-04-23T05:28:01.289Z,62.10
2018-04-23T05:30:33.640Z,62.00
2018-04-23T05:33:06.214Z,62.30
2018-04-23T05:35:38.389Z,63.10
2018-04-23T05:38:08.384Z,63.90
2018-04-23T05:40:40.473Z,64.30
2018-04-23T05:43:11.671Z,64.60
2018-04-23T05:45:41.509Z,64.90
2018-04-23T05:48:14.107Z,65.20
2018-04-23T05:50:46.676Z,65.40
2018-04-23T05:53:19.673Z,65.40
2018-04-23T05:55:52.452Z,65.80
2018-04-23T05:58:25.413Z,66.50
2018-04-23T06:00:56.740Z,66.00
2018-04-23T06:03:28.116Z,66.50
2018-04-23T06:05:59.455Z,66.40
2018-04-23T06:08:31.030Z,66.70
2018-04-23T06:11:03.236Z,66.70
2018-04-23T06:13:35.550Z,66.90
2018-04-23T06:16:08.364Z,67.70
2018-04-23T06:18:40.075Z,67.30
2018-04-23T06:21:11.282Z,67.50
2018-04-23T06:23:43.216Z,67.20
2018-04-23T06:26:15.180Z,67.50
2018-04-23T06:28:47.349Z,67.90
2018-04-23T06:31:20.751Z,68.10
2018-04-23T06:33:52.510Z,67.90
2018-04-23T06:36:24.065Z,67.90
2018-04-23T06:38:55.813Z,67.90
2018-04-23T06:41:27.548Z,68.30
2018-04-23T06:43:59.749Z,68.00
2018-04-23T06:46:31.293Z,68.40
2018-04-23T06:49:03.054Z,68.60
2018-04-23T06:51:34.193Z,68.30
2018-04-23T06:54:06.157Z,67.80
2018-04-23T06:56:35.974Z,66.40
2018-04-23T06:59:05.989Z,66.20
2018-04-23T07:01:38.158Z,66.90
2018-04-23T07:04:10.302Z,65.50
2018-04-23T07:06:40.036Z,64.80
2018-04-23T07:09:09.760Z,64.30
2018-04-23T07:11:39.486Z,65.00
2018-04-23T07:14:09.318Z,64.50
2018-04-23T07:16:41.145Z,64.10
2018-04-23T07:19:13.265Z,64.70
2018-04-23T07:21:43.102Z,64.50
2018-04-23T07:24:14.767Z,63.90
2018-04-23T07:26:46.319Z,64.10
2018-04-23T07:29:18.309Z,64.10
2018-04-23T07:31:50.249Z,64.50
2018-04-23T07:34:21.770Z,65.60
2018-04-23T07:36:53.103Z,66.30
2018-04-23T07:39:24.059Z,66.70
2018-04-23T07:41:56.663Z,66.70
2018-04-23T07:44:28.590Z,67.80
2018-04-23T07:47:00.168Z,68.10
2018-04-23T07:49:31.700Z,66.70
2018-04-23T07:52:03.064Z,67.00
2018-04-23T07:54:35.055Z,66.90
2018-04-23T07:57:07.016Z,67.30
2018-04-23T07:59:39.792Z,67.60
2018-04-23T08:02:12.575Z,67.40
2018-04-23T08:04:44.127Z,67.70
2018-04-23T08:07:15.682Z,67.60
2018-04-23T08:09:47.235Z,68.20
2018-04-23T08:12:18.429Z,68.30
2018-04-23T08:14:49.927Z,68.10
2018-04-23T08:17:21.247Z,68.70
2018-04-23T08:19:53.034Z,69.50
2018-04-23T08:22:25.003Z,69.10
2018-04-23T08:24:56.731Z,69.30
2018-04-23T08:27:28.709Z,68.80
2018-04-23T08:30:01.099Z,68.90
2018-04-23T08:32:33.065Z,69.20
2018-04-23T08:35:05.224Z,69.40
2018-04-23T08:37:36.523Z,69.80
2018-04-23T08:40:08.532Z,69.20
2018-04-23T08:42:40.288Z,69.20
2018-04-23T08:45:12.449Z,69.30
2018-04-23T08:47:43.775Z,69.60
2018-04-23T08:50:15.771Z,69.90
2018-04-23T08:52:47.124Z,70.00
2018-04-23T08:55:19.492Z,69.50
2018-04-23T08:57:51.221Z,69.70
2018-04-23T09:00:23.016Z,69.60
2018-04-23T09:02:54.325Z,69.50
2018-04-23T09:05:26.527Z,69.70
2018-04-23T09:07:58.046Z,69.90
2018-04-23T09:10:30.669Z,70.00
2018-04-23T09:13:02.424Z,70.00
2018-04-23T09:15:34.583Z,70.20
2018-04-23T09:18:06.749Z,70.50
2018-04-23T09:20:38.301Z,70.60
2018-04-23T09:23:09.657Z,71.00
2018-04-23T09:25:42.029Z,70.90
2018-04-23T09:28:13.566Z,71.20
2018-04-23T09:30:45.544Z,71.10
2018-04-23T09:33:18.328Z,71.30
2018-04-23T09:35:48.124Z,71.60
2018-04-23T09:38:17.911Z,72.10
2018-04-23T09:40:47.685Z,71.90
2018-04-23T09:43:19.627Z,72.10
2018-04-23T09:45:50.557Z,72.20
2018-04-23T09:48:21.909Z,71.70
2018-04-23T09:50:53.669Z,72.00
2018-04-23T09:53:25.630Z,72.30
2018-04-23T09:55:57.172Z,72.60
2018-04-23T09:58:28.326Z,72.90
2018-04-23T10:01:00.868Z,72.90
2018-04-23T10:03:46.997Z,72.80
2018-04-23T10:06:18.959Z,73.20
2018-04-23T10:08:50.904Z,73.30
2018-04-23T10:11:22.030Z,73.50
2018-04-23T10:13:53.377Z,73.30
2018-04-23T10:16:25.138Z,73.60
2018-04-23T10:18:56.297Z,73.80
2018-04-23T10:21:28.246Z,73.60
2018-04-23T10:24:00.232Z,73.60
2018-04-23T10:26:33.035Z,73.80
2018-04-23T10:29:05.172Z,74.70
2018-04-23T10:31:36.753Z,73.80
2018-04-23T10:34:08.481Z,74.40
2018-04-23T10:36:39.450Z,74.20
2018-04-23T10:39:10.586Z,74.30
2018-04-23T10:41:42.149Z,74.10
2018-04-23T10:44:13.710Z,74.20
2018-04-23T10:46:45.047Z,74.60
2018-04-23T10:49:16.782Z,75.20
2018-04-23T10:51:48.100Z,75.00
2018-04-23T10:54:20.116Z,74.80
2018-04-23T10:56:51.906Z,74.80
2018-04-23T10:59:23.043Z,74.70
2018-04-23T11:01:55.063Z,74.70
2018-04-23T11:04:26.322Z,74.90
2018-04-23T11:06:57.894Z,75.00
2018-04-23T11:09:29.672Z,75.00
2018-04-23T11:12:01.622Z,75.30
2018-04-23T11:14:33.352Z,75.50
2018-04-23T11:17:04.943Z,75.70
2018-04-23T11:19:36.083Z,75.80
2018-04-23T11:22:07.384Z,76.00
2018-04-23T11:24:38.576Z,75.70
2018-04-23T11:27:10.102Z,75.70
2018-04-23T11:29:41.222Z,76.40
2018-04-23T11:32:13.231Z,76.10
2018-04-23T11:34:43.168Z,75.90
2018-04-23T11:37:12.950Z,75.60
2018-04-23T11:39:42.825Z,75.90
2018-04-23T11:42:12.523Z,76.20
2018-04-23T11:44:43.637Z,76.30
2018-04-23T11:47:15.188Z,76.50
2018-04-23T11:49:47.101Z,76.50
2018-04-23T11:52:18.648Z,76.60
2018-04-23T11:54:50.820Z,76.70
2018-04-23T11:57:21.999Z,76.90
2018-04-23T11:59:53.535Z,76.80
2018-04-23T12:02:24.544Z,77.00
2018-04-23T12:04:55.820Z,77.20
2018-04-23T12:07:27.194Z,77.30
2018-04-23T12:09:58.509Z,77.20
2018-04-23T12:12:30.275Z,77.60
2018-04-23T12:15:01.661Z,78.20
2018-04-23T12:17:33.623Z,78.10
2018-04-23T12:20:05.151Z,78.80
2018-04-23T12:22:38.773Z,77.80
2018-04-23T12:25:10.977Z,77.60
2018-04-23T12:27:43.313Z,77.80
2018-04-23T12:30:15.282Z,77.90
2018-04-23T12:32:46.626Z,78.30
2018-04-23T12:35:17.695Z,78.10
2018-04-23T12:37:49.483Z,78.20
2018-04-23T12:40:21.293Z,78.10
2018-04-23T12:42:52.396Z,78.20
2018-04-23T12:45:24.375Z,78.50
2018-04-23T12:47:57.196Z,78.60
2018-04-23T12:50:29.137Z,78.80
2018-04-23T12:53:01.320Z,78.80
2018-04-23T12:55:33.010Z,79.30
2018-04-23T12:58:04.827Z,79.10
2018-04-23T13:00:36.787Z,79.30
2018-04-23T13:03:09.122Z,79.40
2018-04-23T13:05:41.128Z,79.50
2018-04-23T13:08:13.094Z,79.40
2018-04-23T13:10:43.091Z,79.50
2018-04-23T13:13:14.724Z,79.50
2018-04-23T13:15:44.599Z,79.50
2018-04-23T13:18:14.436Z,79.80
2018-04-23T13:20:44.500Z,80.80
2018-04-23T13:23:14.302Z,81.00
2018-04-23T13:25:46.387Z,80.40
2018-04-23T13:28:17.896Z,80.40
2018-04-23T13:30:47.731Z,80.50
2018-04-23T13:33:17.626Z,80.70
2018-04-23T13:35:48.905Z,80.70
2018-04-23T13:38:20.692Z,80.70
2018-04-23T13:40:51.787Z,80.90
2018-04-23T13:43:23.342Z,81.20
2018-04-23T13:45:54.879Z,81.30
2018-04-23T13:48:24.831Z,81.60
2018-04-23T13:50:56.243Z,81.20
2018-04-23T13:53:27.698Z,81.00
2018-04-23T13:55:59.040Z,80.90
2018-04-23T13:58:31.029Z,80.40
2018-04-23T14:01:00.791Z,80.30
2018-04-23T14:03:33.333Z,80.30
2018-04-23T14:06:05.072Z,80.40
2018-04-23T14:08:36.434Z,81.30
2018-04-23T14:11:07.989Z,80.90
2018-04-23T14:13:38.915Z,80.70
2018-04-23T14:16:10.060Z,80.90
2018-04-23T14:18:39.807Z,80.70
2018-04-23T14:21:09.577Z,80.90
2018-04-23T14:23:39.422Z,80.90
2018-04-23T14:26:11.782Z,80.70
2018-04-23T14:28:43.129Z,80.30
2018-04-23T14:31:15.304Z,79.70
2018-04-23T14:33:47.206Z,79.50
2018-04-23T14:36:18.554Z,79.10
2018-04-23T14:38:49.327Z,78.70
2018-04-23T14:41:20.691Z,78.70
2018-04-23T14:43:51.578Z,78.40
2018-04-23T14:46:23.368Z,78.40
2018-04-23T14:48:54.942Z,78.40
2018-04-23T14:51:26.700Z,77.90
2018-04-23T14:53:58.252Z,77.40
2018-04-23T14:56:30.421Z,77.60
2018-04-23T14:59:00.221Z,77.40
2018-04-23T15:01:31.304Z,76.90
2018-04-23T15:04:03.646Z,76.40
2018-04-23T15:06:34.887Z,76.10
2018-04-23T15:09:09.004Z,75.00
2018-04-23T15:11:40.974Z,75.80
2018-04-23T15:14:12.699Z,73.80
2018-04-23T15:16:43.864Z,73.90
2018-04-23T15:19:15.222Z,73.50
2018-04-23T15:21:45.030Z,72.60
2018-04-23T15:24:16.899Z,71.90
2018-04-23T15:26:48.856Z,71.30
2018-04-23T15:29:18.625Z,71.30
2018-04-23T15:31:48.369Z,70.80
2018-04-23T15:34:18.181Z,70.60
2018-04-23T15:36:47.991Z,70.00
2018-04-23T15:39:17.753Z,69.70
2018-04-23T15:41:47.546Z,69.00
2018-04-23T15:44:17.353Z,68.90
2018-04-23T15:46:49.200Z,68.70
2018-04-23T15:49:20.757Z,68.70
2018-04-23T15:51:52.916Z,68.90
2018-04-23T15:54:22.694Z,67.60
2018-04-23T15:56:52.473Z,68.10
2018-04-23T15:59:22.257Z,66.90
2018-04-23T16:01:52.080Z,65.40
2018-04-23T16:04:22.663Z,63.10
2018-04-23T16:06:52.412Z,63.00
2018-04-23T16:09:22.150Z,63.30
2018-04-23T16:11:52.170Z,63.80
2018-04-23T16:14:22.151Z,65.30
2018-04-23T16:16:51.951Z,64.60
2018-04-23T16:19:21.685Z,62.90
2018-04-23T16:21:52.204Z,63.80
2018-04-23T16:24:22.743Z,62.80
2018-04-23T16:26:52.565Z,62.70
2018-04-23T16:29:22.362Z,60.10
2018-04-23T16:31:52.918Z,59.30
2018-04-23T16:34:22.783Z,59.20
2018-04-23T16:36:55.080Z,58.50
2018-04-23T16:39:25.107Z,58.50
2018-04-23T16:41:57.156Z,57.80
2018-04-23T16:44:27.396Z,58.10
2018-04-23T16:46:57.176Z,57.80
2018-04-23T16:49:26.993Z,57.90
2018-04-23T16:51:56.758Z,56.30
2018-04-23T16:54:26.602Z,55.90
2018-04-23T16:56:56.404Z,56.80
2018-04-23T16:59:26.247Z,56.50
2018-04-23T17:01:56.220Z,57.20
2018-04-23T17:04:26.022Z,56.60
2018-04-23T17:06:58.761Z,56.50
2018-04-23T17:09:28.587Z,57.50
2018-04-23T17:11:58.390Z,57.60
2018-04-23T17:14:28.191Z,57.60
2018-04-23T17:16:58.090Z,55.60
2018-04-23T17:19:27.873Z,55.80
2018-04-23T17:21:57.621Z,54.70
2018-04-23T17:24:27.341Z,52.70
2018-04-23T17:26:57.080Z,53.60
2018-04-23T17:29:26.925Z,54.40
2018-04-23T17:31:56.695Z,52.90
2018-04-23T17:34:26.483Z,53.50
2018-04-23T17:36:56.514Z,52.50
2018-04-23T17:39:26.325Z,51.90
2018-04-23T17:41:56.137Z,51.50
2018-04-23T17:44:25.933Z,51.40
2018-04-23T17:46:58.227Z,52.00
2018-04-23T17:49:30.181Z,51.60
2018-04-23T17:52:00.248Z,50.10
2018-04-23T17:54:30.079Z,49.30
2018-04-23T17:57:02.389Z,50.10
2018-04-23T17:59:32.415Z,50.30
2018-04-23T18:02:02.221Z,49.60
2018-04-23T18:04:31.995Z,50.40
2018-04-23T18:07:01.745Z,50.00
2018-04-23T18:09:31.772Z,50.20
2018-04-23T18:12:01.611Z,49.50
2018-04-23T18:14:31.397Z,49.30
2018-04-23T18:17:01.181Z,49.80
2018-04-23T18:19:31.004Z,48.00
2018-04-23T18:22:00.784Z,49.20
2018-04-23T18:24:30.530Z,48.20
2018-04-23T18:27:00.353Z,47.50
2018-04-23T18:29:30.284Z,47.00
2018-04-23T18:32:00.373Z,46.90
2018-04-23T18:34:30.211Z,47.00
2018-04-23T18:37:00.061Z,47.20
2018-04-23T18:39:29.918Z,47.00
2018-04-23T18:41:59.716Z,45.90
2018-04-23T18:44:29.556Z,44.80
2018-04-23T18:46:59.390Z,44.10
2018-04-23T18:49:29.196Z,44.60
2018-04-23T18:51:59.053Z,45.20
2018-04-23T18:54:28.890Z,44.30
2018-04-23T18:56:58.700Z,44.30
2018-04-23T18:59:28.627Z,42.80
2018-04-23T19:01:58.357Z,41.00
2018-04-23T19:04:28.155Z,39.70
2018-04-23T19:06:58.735Z,39.00
2018-04-23T19:09:28.583Z,39.00
2018-04-23T19:11:58.473Z,38.20
2018-04-23T19:14:29.155Z,38.70
2018-04-23T19:16:59.028Z,38.10
2018-04-23T19:19:28.963Z,35.90
2018-04-23T19:21:58.834Z,33.60
2018-04-23T19:24:28.862Z,34.80
2018-04-23T19:26:58.626Z,35.80
2018-04-23T19:29:28.415Z,35.60
2018-04-23T19:31:58.246Z,34.20
2018-04-23T19:34:28.077Z,33.60
2018-04-23T19:36:58.173Z,33.90
2018-04-23T19:39:28.063Z,33.30
2018-04-23T19:41:57.781Z,33.10
2018-04-23T19:44:27.570Z,31.40
2018-04-23T19:46:57.409Z,31.50
2018-04-23T19:49:27.232Z,32.40
2018-04-23T19:51:57.062Z,31.40
2018-04-23T19:54:26.869Z,35.50
2018-04-23T19:56:56.749Z,32.10
2018-04-23T19:59:26.543Z,30.90
2018-04-23T20:01:56.388Z,28.90
2018-04-23T20:04:26.970Z,29.80
2018-04-23T20:06:56.783Z,29.20
2018-04-23T20:09:27.488Z,29.30
2018-04-23T20:11:57.325Z,27.60
2018-04-23T20:14:27.525Z,29.20
2018-04-23T20:16:57.367Z,30.00
2018-04-23T20:19:27.097Z,30.70
2018-04-23T20:21:57.888Z,29.60
2018-04-23T20:24:27.783Z,28.90
2018-04-23T20:26:57.694Z,28.00
2018-04-23T20:29:27.581Z,29.40
2018-04-23T20:31:57.385Z,29.20
2018-04-23T20:34:27.227Z,29.20
2018-04-23T20:36:56.972Z,29.00
2018-04-23T20:39:26.731Z,29.10
2018-04-23T20:41:56.508Z,28.80
2018-04-23T20:44:26.261Z,28.60
2018-04-23T20:46:56.149Z,28.10
2018-04-23T20:49:25.940Z,28.10
2018-04-23T20:51:55.696Z,28.10
2018-04-23T20:54:25.553Z,27.70
2018-04-23T20:56:55.354Z,28.60
2018-04-23T20:59:25.216Z,27.10
2018-04-23T21:01:55.287Z,27.50
2018-04-23T21:04:25.110Z,28.20
2018-04-23T21:06:54.858Z,27.90
2018-04-23T21:09:24.746Z,29.50
2018-04-23T21:11:55.321Z,28.80
2018-04-23T21:14:25.167Z,28.50
2018-04-23T21:16:55.802Z,30.90
2018-04-23T21:19:25.782Z,30.90
2018-04-23T21:21:55.599Z,28.60
2018-04-23T21:24:25.674Z,28.20
2018-04-23T21:26:55.428Z,28.40
2018-04-23T21:29:25.291Z,28.20
2018-04-23T21:31:55.149Z,28.40
2018-04-23T21:34:24.965Z,29.30
2018-04-23T21:36:54.982Z,29.20
2018-04-23T21:39:24.822Z,28.80
2018-04-23T21:41:54.715Z,28.10
2018-04-23T21:44:24.713Z,28.20
2018-04-23T21:46:55.310Z,29.10
2018-04-23T21:49:27.433Z,28.50
2018-04-23T21:51:59.099Z,28.60
2018-04-23T21:54:30.983Z,28.60
2018-04-23T21:57:00.763Z,30.90
2018-04-23T21:59:30.483Z,31.90
2018-04-23T22:02:00.278Z,31.40
2018-04-23T22:04:30.110Z,31.20
2018-04-23T22:07:00.029Z,31.90
2018-04-23T22:09:29.864Z,32.40
2018-04-23T22:11:59.740Z,30.10
2018-04-23T22:14:29.573Z,29.60
2018-04-23T22:16:59.575Z,30.80
2018-04-23T22:19:29.428Z,29.80
2018-04-23T22:21:59.177Z,31.60
2018-04-23T22:24:28.934Z,31.70
2018-04-23T22:26:58.732Z,31.40
2018-04-23T22:29:28.512Z,32.70
2018-04-23T22:31:58.282Z,32.30
2018-04-23T22:34:28.070Z,33.80
2018-04-23T22:36:57.830Z,32.10
2018-04-23T22:39:27.590Z,32.40
2018-04-23T22:41:59.863Z,34.00
2018-04-23T22:44:29.966Z,33.80
2018-04-23T22:46:59.815Z,34.90
2018-04-23T22:49:29.551Z,32.90
2018-04-23T22:51:59.319Z,33.60
2018-04-23T22:54:29.526Z,32.90
2018-04-23T22:56:59.420Z,34.40
2018-04-23T22:59:31.322Z,33.90
2018-04-23T23:02:03.669Z,33.60
2018-04-23T23:04:33.470Z,35.30
2018-04-23T23:07:03.395Z,33.80
2018-04-23T23:09:33.223Z,33.20
2018-04-23T23:12:03.089Z,32.60
2018-04-23T23:14:32.987Z,32.80
2018-04-23T23:17:02.850Z,33.10
2018-04-23T23:19:33.471Z,33.80
2018-04-23T23:22:04.642Z,33.70
2018-04-23T23:24:35.424Z,31.60
2018-04-23T23:27:05.291Z,29.70
2018-04-23T23:29:35.046Z,27.80
2018-04-23T23:32:04.877Z,26.70
2018-04-23T23:34:34.664Z,27.60
2018-04-23T23:37:04.604Z,27.00
2018-04-23T23:39:34.664Z,27.00
2018-04-23T23:42:04.456Z,27.10
2018-04-23T23:44:34.320Z,27.40
2018-04-23T23:47:04.091Z,27.40
2018-04-23T23:49:33.938Z,26.70
2018-04-23T23:52:03.713Z,27.60
2018-04-23T23:54:33.490Z,26.80
2018-04-23T23:57:03.255Z,27.40
2018-04-23T23:59:33.054Z,26.60
